Time;durP1;ratioP1;P1;durP2;ratioP2;P2;SDS_P1;SDS_P2;PMS_P1;PMS_P2;Temp;Humidity;BMP_temperature;BMP_pressure;BME280_temperature;BME280_humidity;BME280_pressure;Samples;Min_cycle;Max_cycle;Signal;HPM_P1;HPM_P2
2021/12/01 00:00:17;;;;;;;7.28;6.32;;;;;;;;;;2089549;28;20318;-63
2021/12/01 00:01:17;;;;;;;9.02;7.15;;;;;;;;;;2088604;28;20240;-63
2021/12/01 00:02:17;;;;;;;7.65;6.85;;;;;;;;;;2088704;28;20857;-63
2021/12/01 00:03:18;;;;;;;8.90;7.95;;;;;;;;;;2088699;28;20179;-63
2021/12/01 00:04:18;;;;;;;10.63;8.10;;;;;;;;;;2085495;28;20230;-63
2021/12/01 00:05:19;;;;;;;9.48;8.23;;;;;;;;;;2088882;28;20192;-62
2021/12/01 00:06:19;;;;;;;9.98;8.48;;;;;;;;;;2087852;28;20600;-62
2021/12/01 00:07:20;;;;;;;10.77;8.32;;;;;;;;;;2088107;28;20199;-61
2021/12/01 00:08:20;;;;;;;11.18;8.95;;;;;;;;;;2088680;28;20183;-62
2021/12/01 00:09:20;;;;;;;12.15;9.20;;;;;;;;;;2088447;28;20310;-63
2021/12/01 00:10:21;;;;;;;13.90;10.25;;;;;;;;;;2088370;28;20190;-63
2021/12/01 00:11:22;;;;;;;14.07;10.00;;;;;;;;;;2087799;28;20222;-63
2021/12/01 00:12:22;;;;;;;16.17;11.23;;;;;;;;;;2088642;28;20358;-63
2021/12/01 00:13:23;;;;;;;14.15;10.30;;;;;;;;;;2088929;28;20160;-63
2021/12/01 00:14:23;;;;;;;15.20;11.15;;;;;;;;;;2088200;28;20211;-63
2021/12/01 00:15:23;;;;;;;14.75;11.00;;;;;;;;;;2088748;28;20655;-63
2021/12/01 00:16:24;;;;;;;15.00;12.15;;;;;;;;;;2088454;28;20187;-63
2021/12/01 00:17:25;;;;;;;16.60;12.43;;;;;;;;;;2089349;28;20237;-62
2021/12/01 00:18:26;;;;;;;16.73;12.45;;;;;;;;;;2087409;28;20539;-60
2021/12/01 00:19:29;;;;;;;17.17;11.85;;;;;;;;;;2088529;28;20190;-62
2021/12/01 00:20:30;;;;;;;17.63;12.38;;;;;;;;;;2088751;28;20174;-62
2021/12/01 00:21:30;;;;;;;18.90;13.27;;;;;;;;;;2088772;28;20254;-62
2021/12/01 00:22:30;;;;;;;18.92;13.45;;;;;;;;;;2089028;28;20517;-61
2021/12/01 00:23:31;;;;;;;19.98;13.60;;;;;;;;;;2088851;28;20570;-62
2021/12/01 00:24:31;;;;;;;19.20;13.32;;;;;;;;;;2089506;28;20175;-62
2021/12/01 00:25:35;;;;;;;18.70;13.13;;;;;;;;;;2087044;28;20555;-62
2021/12/01 00:26:35;;;;;;;19.35;13.38;;;;;;;;;;2084634;28;20279;-62
2021/12/01 00:27:36;;;;;;;16.95;13.00;;;;;;;;;;2088728;28;20213;-62
2021/12/01 00:28:36;;;;;;;20.25;14.45;;;;;;;;;;2087954;28;20187;-64
2021/12/01 00:29:36;;;;;;;21.25;13.77;;;;;;;;;;2087999;28;20307;-62
2021/12/01 00:30:37;;;;;;;22.02;14.18;;;;;;;;;;2089135;28;20583;-62
2021/12/01 00:31:37;;;;;;;23.30;14.55;;;;;;;;;;2088721;28;20175;-60
2021/12/01 00:32:38;;;;;;;24.05;15.10;;;;;;;;;;2088518;28;20196;-62
2021/12/01 00:33:40;;;;;;;22.05;14.93;;;;;;;;;;2085102;28;20179;-62
2021/12/01 00:34:40;;;;;;;23.42;15.50;;;;;;;;;;2085078;28;20176;-62
2021/12/01 00:35:40;;;;;;;27.42;18.08;;;;;;;;;;2088125;28;20274;-61
2021/12/01 00:36:41;;;;;;;21.20;15.88;;;;;;;;;;2089173;28;20171;-59
2021/12/01 00:37:42;;;;;;;24.42;16.17;;;;;;;;;;2089011;28;20548;-62
2021/12/01 00:38:43;;;;;;;25.70;18.00;;;;;;;;;;2089229;28;20218;-62
2021/12/01 00:39:44;;;;;;;29.52;18.40;;;;;;;;;;2090633;28;20640;-62
2021/12/01 00:40:44;;;;;;;25.67;16.08;;;;;;;;;;2089905;28;20196;-63
2021/12/01 00:41:47;;;;;;;24.90;16.20;;;;;;;;;;2089764;28;20176;-62
2021/12/01 00:42:47;;;;;;;31.30;17.95;;;;;;;;;;2089647;28;20584;-59
2021/12/01 00:43:48;;;;;;;30.70;18.52;;;;;;;;;;2089633;28;20253;-63
2021/12/01 00:44:55;;;;;;;27.70;17.27;;;;;;;;;;2090841;28;20217;-62
2021/12/01 00:45:58;;;;;;;33.15;17.98;;;;;;;;;;2090399;28;20171;-63
2021/12/01 00:48:01;;;;;;;27.98;18.20;;;;;;;;;;2084018;28;20226;-63
2021/12/01 00:49:02;;;;;;;30.83;17.80;;;;;;;;;;2088962;28;20313;-62
2021/12/01 00:50:03;;;;;;;33.60;18.15;;;;;;;;;;2089222;28;20191;-63
2021/12/01 00:51:03;;;;;;;31.15;19.42;;;;;;;;;;2089438;28;20278;-62
2021/12/01 00:52:03;;;;;;;30.80;19.83;;;;;;;;;;2089618;28;20206;-63
2021/12/01 00:53:05;;;;;;;28.13;18.00;;;;;;;;;;2089727;28;20179;-63
2021/12/01 00:54:05;;;;;;;28.13;19.08;;;;;;;;;;2090796;28;20183;-65
2021/12/01 00:56:18;;;;;;;30.65;18.55;;;;;;;;;;2086071;28;20277;-59
2021/12/01 00:57:18;;;;;;;34.13;20.23;;;;;;;;;;2085285;28;20172;-58
2021/12/01 00:58:18;;;;;;;31.48;20.60;;;;;;;;;;2088671;28;20260;-58
2021/12/01 00:59:19;;;;;;;36.13;20.15;;;;;;;;;;2083364;28;20180;-54
2021/12/01 01:00:20;;;;;;;32.30;19.27;;;;;;;;;;2088892;28;20607;-57
2021/12/01 01:01:21;;;;;;;29.42;20.08;;;;;;;;;;2080734;28;20180;-58
2021/12/01 01:02:21;;;;;;;33.08;20.58;;;;;;;;;;2065366;28;20213;-56
2021/12/01 01:03:22;;;;;;;35.83;22.42;;;;;;;;;;2073689;28;20207;-56
2021/12/01 01:04:23;;;;;;;39.10;23.33;;;;;;;;;;2090760;28;20183;-60
2021/12/01 01:05:24;;;;;;;35.83;22.58;;;;;;;;;;2090562;28;20187;-57
2021/12/01 01:06:24;;;;;;;37.88;23.65;;;;;;;;;;2091931;28;20210;-58
2021/12/01 01:07:24;;;;;;;41.05;24.20;;;;;;;;;;2091150;28;20182;-57
2021/12/01 01:08:25;;;;;;;40.80;24.48;;;;;;;;;;2084594;28;20215;-57
2021/12/01 01:09:31;;;;;;;37.92;21.95;;;;;;;;;;2083260;28;20251;-57
2021/12/01 01:17:09;;;;;;;42.85;27.00;;;;;;;;;;2092725;28;20172;-58
2021/12/01 01:18:10;;;;;;;33.63;20.73;;;;;;;;;;2092075;28;20195;-60
2021/12/01 01:19:12;;;;;;;43.22;26.85;;;;;;;;;;2075797;28;20641;-59
2021/12/01 01:20:12;;;;;;;42.67;26.95;;;;;;;;;;2084457;28;20191;-65
2021/12/01 01:21:13;;;;;;;42.35;24.48;;;;;;;;;;2075798;28;20176;-59
2021/12/01 01:22:14;;;;;;;42.80;24.23;;;;;;;;;;2084535;28;20180;-59
2021/12/01 01:23:14;;;;;;;48.67;27.38;;;;;;;;;;2084823;28;20172;-60
2021/12/01 01:24:15;;;;;;;42.95;25.17;;;;;;;;;;2084888;28;20172;-59
2021/12/01 01:25:15;;;;;;;44.72;25.92;;;;;;;;;;2085532;28;20212;-60
2021/12/01 01:26:17;;;;;;;41.40;26.38;;;;;;;;;;2092542;28;20175;-58
2021/12/01 01:27:17;;;;;;;49.28;27.05;;;;;;;;;;2091783;28;20255;-58
2021/12/01 01:28:17;;;;;;;44.08;25.27;;;;;;;;;;2091166;28;20186;-59
2021/12/01 01:29:21;;;;;;;42.58;25.92;;;;;;;;;;2084545;28;20227;-57
2021/12/01 01:30:21;;;;;;;43.92;24.83;;;;;;;;;;2098870;28;20202;-59
2021/12/01 01:31:22;;;;;;;29.63;17.30;;;;;;;;;;2099878;28;20635;-58
2021/12/01 01:32:22;;;;;;;37.08;23.02;;;;;;;;;;2091535;28;20617;-57
2021/12/01 01:33:22;;;;;;;34.53;22.10;;;;;;;;;;2093306;28;20182;-59
2021/12/01 01:34:24;;;;;;;34.00;21.83;;;;;;;;;;2093275;28;20259;-57
2021/12/01 01:35:24;;;;;;;34.65;23.05;;;;;;;;;;2090181;28;20521;-60
2021/12/01 01:36:25;;;;;;;33.35;21.60;;;;;;;;;;2083840;28;20203;-59
2021/12/01 01:37:25;;;;;;;34.63;22.52;;;;;;;;;;2084172;28;20176;-58
2021/12/01 01:38:28;;;;;;;32.60;21.77;;;;;;;;;;2090439;28;20183;-58
2021/12/01 01:39:29;;;;;;;30.73;19.77;;;;;;;;;;2088384;28;20532;-56
2021/12/01 01:40:29;;;;;;;31.70;20.50;;;;;;;;;;2082885;28;20180;-56
2021/12/01 01:41:30;;;;;;;29.33;19.33;;;;;;;;;;2090290;28;20282;-56
2021/12/01 01:42:30;;;;;;;28.73;20.02;;;;;;;;;;2090996;28;20275;-55
2021/12/01 01:43:30;;;;;;;26.52;18.20;;;;;;;;;;2085337;28;20206;-57
2021/12/01 01:44:31;;;;;;;27.95;18.73;;;;;;;;;;2084355;28;20168;-59
2021/12/01 01:45:31;;;;;;;24.60;17.60;;;;;;;;;;2084457;28;20266;-58
2021/12/01 01:46:33;;;;;;;24.98;17.20;;;;;;;;;;2080861;28;20226;-59
2021/12/01 01:47:33;;;;;;;24.73;16.10;;;;;;;;;;2087033;28;20178;-59
2021/12/01 01:48:44;;;;;;;24.70;17.27;;;;;;;;;;2083048;28;20193;-56
2021/12/01 01:49:59;;;;;;;21.80;14.82;;;;;;;;;;2086716;28;20279;-57
2021/12/01 01:51:00;;;;;;;24.55;16.50;;;;;;;;;;2085948;28;20155;-57
2021/12/01 01:52:01;;;;;;;24.08;17.52;;;;;;;;;;2084807;28;20181;-58
2021/12/01 01:53:12;;;;;;;22.70;15.32;;;;;;;;;;2086565;28;20641;-58
2021/12/01 01:54:13;;;;;;;21.70;16.08;;;;;;;;;;2082102;28;20168;-57
2021/12/01 01:55:13;;;;;;;25.52;17.60;;;;;;;;;;2085610;28;20187;-60
2021/12/01 01:56:14;;;;;;;23.50;16.17;;;;;;;;;;2090668;28;20183;-57
2021/12/01 01:57:15;;;;;;;23.92;17.20;;;;;;;;;;2085610;28;20180;-58
2021/12/01 01:58:15;;;;;;;21.83;15.93;;;;;;;;;;2090720;28;20183;-58
2021/12/01 01:59:17;;;;;;;19.42;15.00;;;;;;;;;;2084206;28;20184;-59
2021/12/01 02:00:17;;;;;;;16.13;12.27;;;;;;;;;;2090454;28;20272;-57
2021/12/01 02:02:37;;;;;;;19.70;14.93;;;;;;;;;;2083272;28;20179;-58
2021/12/01 02:03:39;;;;;;;20.48;15.73;;;;;;;;;;2086683;28;20201;-57
2021/12/01 02:04:39;;;;;;;23.33;16.13;;;;;;;;;;2085388;28;20290;-58
2021/12/01 02:05:40;;;;;;;17.90;13.88;;;;;;;;;;2088250;28;20188;-58
2021/12/01 02:06:41;;;;;;;21.13;16.35;;;;;;;;;;2086040;28;20182;-57
2021/12/01 02:07:43;;;;;;;14.65;12.77;;;;;;;;;;2086250;28;20183;-59
2021/12/01 02:08:44;;;;;;;16.50;13.30;;;;;;;;;;2089168;28;20660;-59
2021/12/01 02:09:45;;;;;;;17.48;13.50;;;;;;;;;;2085268;28;20186;-57
2021/12/01 02:10:49;;;;;;;12.65;11.30;;;;;;;;;;2087438;28;20175;-57
2021/12/01 02:11:54;;;;;;;12.88;11.48;;;;;;;;;;2090706;28;20179;-57
2021/12/01 02:12:54;;;;;;;11.85;10.63;;;;;;;;;;2089468;28;20797;-58
2021/12/01 02:13:55;;;;;;;13.98;12.13;;;;;;;;;;2090572;28;20219;-63
2021/12/01 02:14:56;;;;;;;14.18;11.73;;;;;;;;;;2090046;28;20169;-59
2021/12/01 02:15:57;;;;;;;13.48;11.65;;;;;;;;;;2089523;28;20192;-60
2021/12/01 02:16:58;;;;;;;14.32;11.35;;;;;;;;;;2094549;28;20172;-58
2021/12/01 02:17:58;;;;;;;10.85;9.32;;;;;;;;;;2098684;28;20159;-53
2021/12/01 02:18:58;;;;;;;13.20;11.80;;;;;;;;;;2092641;28;20210;-58
2021/12/01 02:19:59;;;;;;;15.18;11.00;;;;;;;;;;2094498;28;20175;-56
2021/12/01 02:21:11;;;;;;;12.85;11.55;;;;;;;;;;2091979;28;20179;-58
2021/12/01 02:22:11;;;;;;;16.25;11.55;;;;;;;;;;2085381;28;20644;-58
2021/12/01 02:23:12;;;;;;;11.65;10.55;;;;;;;;;;2090163;28;20200;-58
2021/12/01 02:24:14;;;;;;;13.60;11.35;;;;;;;;;;2089733;28;20180;-53
2021/12/01 02:25:14;;;;;;;12.40;11.20;;;;;;;;;;2090078;28;20180;-56
2021/12/01 02:26:16;;;;;;;13.45;11.10;;;;;;;;;;2085724;28;20184;-56
2021/12/01 02:27:17;;;;;;;12.45;11.15;;;;;;;;;;2089646;28;20624;-54
2021/12/01 02:28:17;;;;;;;13.05;11.73;;;;;;;;;;2089142;28;20182;-54
2021/12/01 02:29:20;;;;;;;13.02;11.32;;;;;;;;;;2089544;28;20257;-56
2021/12/01 02:30:23;;;;;;;10.80;9.80;;;;;;;;;;2085106;28;20198;-57
2021/12/01 02:31:25;;;;;;;13.40;12.15;;;;;;;;;;2090362;28;20180;-56
2021/12/01 02:32:26;;;;;;;12.70;11.48;;;;;;;;;;2084974;28;20275;-54
2021/12/01 02:33:26;;;;;;;8.13;7.32;;;;;;;;;;2086694;28;20203;-60
2021/12/01 02:34:31;;;;;;;9.88;8.63;;;;;;;;;;2084391;28;20164;-57
2021/12/01 02:35:31;;;;;;;11.77;10.70;;;;;;;;;;2087618;28;20222;-55
2021/12/01 02:36:32;;;;;;;10.60;9.65;;;;;;;;;;2084598;28;20511;-58
2021/12/01 02:37:32;;;;;;;11.77;10.73;;;;;;;;;;2084323;28;20179;-56
2021/12/01 02:38:33;;;;;;;11.32;10.23;;;;;;;;;;2089039;28;20175;-56
2021/12/01 02:39:35;;;;;;;11.50;10.52;;;;;;;;;;2086250;28;20799;-57
2021/12/01 02:40:36;;;;;;;12.43;11.13;;;;;;;;;;2089394;28;20645;-56
2021/12/01 02:41:37;;;;;;;13.02;11.73;;;;;;;;;;2086098;28;20192;-57
2021/12/01 02:42:37;;;;;;;12.38;11.18;;;;;;;;;;2082498;28;20176;-57
2021/12/01 02:43:37;;;;;;;13.02;11.73;;;;;;;;;;2086098;28;20266;-58
2021/12/01 02:44:38;;;;;;;13.82;12.57;;;;;;;;;;2089649;28;20188;-56
2021/12/01 02:45:40;;;;;;;13.68;12.38;;;;;;;;;;2089901;28;20192;-58
2021/12/01 02:46:40;;;;;;;13.88;12.65;;;;;;;;;;2086759;28;20183;-58
2021/12/01 02:47:40;;;;;;;14.73;13.27;;;;;;;;;;2083398;28;20219;-59
2021/12/01 02:48:42;;;;;;;13.45;12.25;;;;;;;;;;2085364;28;20174;-58
2021/12/01 02:49:42;;;;;;;12.18;11.07;;;;;;;;;;2086558;28;20207;-59
2021/12/01 02:50:43;;;;;;;13.07;11.77;;;;;;;;;;2090965;28;20191;-58
2021/12/01 02:51:43;;;;;;;13.38;12.18;;;;;;;;;;2089125;28;20249;-57
2021/12/01 02:52:43;;;;;;;13.57;12.27;;;;;;;;;;2087306;28;20614;-57
2021/12/01 02:53:44;;;;;;;12.75;11.52;;;;;;;;;;2089902;28;20594;-56
2021/12/01 02:54:44;;;;;;;11.10;9.90;;;;;;;;;;2089132;28;20203;-56
2021/12/01 02:55:56;;;;;;;12.23;11.07;;;;;;;;;;2087921;28;20204;-55
2021/12/01 02:56:56;;;;;;;11.98;10.88;;;;;;;;;;2089269;28;20202;-54
2021/12/01 02:57:59;;;;;;;10.57;9.57;;;;;;;;;;2086598;28;20259;-58
2021/12/01 02:59:00;;;;;;;12.13;11.02;;;;;;;;;;2088875;28;20255;-60
2021/12/01 03:00:00;;;;;;;11.57;10.48;;;;;;;;;;2089480;28;20176;-57
2021/12/01 03:01:03;;;;;;;13.13;11.88;;;;;;;;;;2089966;28;20168;-62
2021/12/01 03:02:03;;;;;;;12.95;11.75;;;;;;;;;;2088949;28;20180;-58
2021/12/01 03:03:04;;;;;;;11.77;10.70;;;;;;;;;;2089847;28;20310;-56
2021/12/01 03:04:04;;;;;;;9.18;8.48;;;;;;;;;;2087418;28;20590;-57
2021/12/01 03:05:05;;;;;;;10.20;9.32;;;;;;;;;;2089987;28;20164;-56
2021/12/01 03:06:06;;;;;;;10.93;9.65;;;;;;;;;;2089433;28;20271;-58
2021/12/01 03:07:07;;;;;;;10.95;9.95;;;;;;;;;;2089311;28;20171;-60
2021/12/01 03:08:07;;;;;;;9.52;8.73;;;;;;;;;;2089831;28;20186;-57
2021/12/01 03:09:08;;;;;;;10.27;9.48;;;;;;;;;;2090378;28;20658;-58
2021/12/01 03:10:09;;;;;;;9.70;7.93;;;;;;;;;;2081831;28;20204;-55
2021/12/01 03:11:09;;;;;;;11.40;10.40;;;;;;;;;;2090307;28;20175;-59
2021/12/01 03:12:09;;;;;;;10.43;9.48;;;;;;;;;;2089532;28;20186;-59
2021/12/01 03:13:10;;;;;;;10.15;9.20;;;;;;;;;;2088288;28;20194;-57
2021/12/01 03:14:11;;;;;;;11.77;10.70;;;;;;;;;;2090471;28;20175;-57
2021/12/01 03:15:16;;;;;;;11.05;10.07;;;;;;;;;;2090931;28;20172;-55
2021/12/01 03:16:16;;;;;;;11.13;10.02;;;;;;;;;;2082343;28;20172;-58
2021/12/01 03:17:17;;;;;;;10.30;9.30;;;;;;;;;;2086912;28;20643;-58
2021/12/01 03:18:17;;;;;;;9.95;9.15;;;;;;;;;;2089272;28;20346;-55
2021/12/01 03:19:19;;;;;;;9.98;9.10;;;;;;;;;;2082935;28;20615;-61
2021/12/01 03:20:22;;;;;;;9.48;8.63;;;;;;;;;;2089382;28;20172;-58
2021/12/01 03:21:22;;;;;;;10.15;9.15;;;;;;;;;;2089747;28;20245;-59
2021/12/01 03:22:24;;;;;;;10.45;9.55;;;;;;;;;;2089886;28;20654;-56
2021/12/01 03:23:25;;;;;;;9.88;8.95;;;;;;;;;;2090437;28;20172;-56
2021/12/01 03:24:25;;;;;;;9.07;8.27;;;;;;;;;;2085256;28;20230;-59
2021/12/01 03:25:27;;;;;;;10.10;9.30;;;;;;;;;;2088789;28;20571;-56
2021/12/01 03:26:28;;;;;;;10.30;9.45;;;;;;;;;;2084885;28;20176;-58
2021/12/01 03:27:29;;;;;;;11.07;10.07;;;;;;;;;;2088057;28;20182;-58
2021/12/01 03:28:29;;;;;;;11.77;10.65;;;;;;;;;;2089847;28;20640;-58
2021/12/01 03:29:29;;;;;;;10.05;9.25;;;;;;;;;;2087923;28;20523;-56
2021/12/01 03:30:33;;;;;;;11.77;10.77;;;;;;;;;;2083219;28;20281;-56
2021/12/01 03:31:34;;;;;;;9.95;9.05;;;;;;;;;;2087446;28;20170;-58
2021/12/01 03:32:34;;;;;;;10.57;9.68;;;;;;;;;;2085884;28;20251;-57
2021/12/01 03:33:35;;;;;;;12.00;10.80;;;;;;;;;;2090172;28;20187;-57
2021/12/01 03:34:36;;;;;;;10.65;9.57;;;;;;;;;;2085712;28;20180;-58
2021/12/01 03:35:37;;;;;;;11.52;10.63;;;;;;;;;;2086775;28;20188;-58
2021/12/01 03:36:38;;;;;;;10.65;9.75;;;;;;;;;;2096526;28;20171;-56
2021/12/01 03:37:39;;;;;;;10.48;9.57;;;;;;;;;;2096807;28;20271;-56
2021/12/01 03:38:39;;;;;;;11.82;10.82;;;;;;;;;;2081294;28;20247;-58
2021/12/01 03:39:40;;;;;;;10.15;9.25;;;;;;;;;;2084736;28;20648;-58
2021/12/01 03:40:40;;;;;;;10.13;9.23;;;;;;;;;;2085672;28;20178;-60
2021/12/01 03:41:41;;;;;;;10.63;9.73;;;;;;;;;;2085379;28;20178;-58
2021/12/01 03:42:44;;;;;;;11.48;10.48;;;;;;;;;;2085503;28;20617;-57
2021/12/01 03:43:44;;;;;;;11.05;10.05;;;;;;;;;;2085806;28;20675;-58
2021/12/01 03:44:44;;;;;;;10.02;9.13;;;;;;;;;;2082772;28;20187;-57
2021/12/01 03:45:44;;;;;;;10.93;10.02;;;;;;;;;;2086474;28;20199;-56
2021/12/01 03:46:45;;;;;;;11.75;10.75;;;;;;;;;;2085412;28;20192;-59
2021/12/01 03:47:46;;;;;;;11.70;10.60;;;;;;;;;;2081839;28;20241;-58
2021/12/01 03:48:46;;;;;;;10.60;9.70;;;;;;;;;;2084083;28;20171;-59
2021/12/01 03:49:46;;;;;;;11.63;10.73;;;;;;;;;;2089504;28;20225;-58
2021/12/01 03:50:49;;;;;;;11.52;10.45;;;;;;;;;;2084328;28;20219;-59
2021/12/01 03:51:50;;;;;;;10.35;9.50;;;;;;;;;;2096675;28;20198;-57
2021/12/01 03:52:50;;;;;;;10.50;9.60;;;;;;;;;;2096892;28;20681;-58
2021/12/01 03:53:50;;;;;;;9.73;9.00;;;;;;;;;;2089141;28;20702;-56
2021/12/01 03:54:51;;;;;;;10.45;9.55;;;;;;;;;;2088478;28;20172;-55
2021/12/01 03:55:52;;;;;;;10.88;10.00;;;;;;;;;;2089380;28;20201;-55
2021/12/01 03:56:53;;;;;;;8.52;7.90;;;;;;;;;;2087166;28;20263;-53
2021/12/01 03:57:53;;;;;;;10.85;9.95;;;;;;;;;;2087389;28;20183;-55
2021/12/01 03:58:53;;;;;;;10.63;9.63;;;;;;;;;;2089091;28;20241;-56
2021/12/01 03:59:54;;;;;;;10.07;9.18;;;;;;;;;;2089082;28;20218;-55
2021/12/01 04:00:54;;;;;;;9.43;8.73;;;;;;;;;;2087984;28;20171;-58
2021/12/01 04:01:55;;;;;;;8.98;8.30;;;;;;;;;;2089414;28;20229;-59
2021/12/01 04:02:55;;;;;;;9.88;8.98;;;;;;;;;;2089328;28;20210;-57
2021/12/01 04:03:58;;;;;;;7.97;7.28;;;;;;;;;;2088769;28;20198;-58
2021/12/01 04:04:58;;;;;;;9.38;8.68;;;;;;;;;;2081495;28;20196;-58
2021/12/01 04:05:58;;;;;;;8.70;8.10;;;;;;;;;;2082421;28;20188;-58
2021/12/01 04:06:59;;;;;;;9.23;8.48;;;;;;;;;;2087726;28;20233;-58
2021/12/01 04:08:01;;;;;;;8.52;7.78;;;;;;;;;;2086233;28;20175;-53
2021/12/01 04:09:02;;;;;;;9.30;8.70;;;;;;;;;;2088167;28;20179;-58
2021/12/01 04:10:05;;;;;;;9.27;8.48;;;;;;;;;;2086086;28;20194;-58
2021/12/01 04:11:05;;;;;;;8.63;8.02;;;;;;;;;;2089390;28;20283;-60
2021/12/01 04:12:06;;;;;;;9.68;8.77;;;;;;;;;;2082507;28;20184;-57
2021/12/01 04:13:06;;;;;;;8.68;7.93;;;;;;;;;;2096769;28;20174;-58
2021/12/01 04:14:08;;;;;;;8.20;7.50;;;;;;;;;;2085488;28;20186;-57
2021/12/01 04:15:09;;;;;;;9.43;8.63;;;;;;;;;;2090084;28;20228;-58
2021/12/01 04:16:09;;;;;;;9.00;8.30;;;;;;;;;;2083404;28;20182;-63
2021/12/01 04:17:10;;;;;;;9.15;8.45;;;;;;;;;;2090884;28;20167;-59
2021/12/01 04:18:10;;;;;;;8.90;8.20;;;;;;;;;;2087604;28;20239;-55
2021/12/01 04:19:11;;;;;;;9.70;9.00;;;;;;;;;;2091025;28;20175;-56
2021/12/01 04:20:13;;;;;;;6.57;6.10;;;;;;;;;;2090661;28;20175;-57
2021/12/01 04:21:13;;;;;;;9.00;8.30;;;;;;;;;;2091416;28;20168;-57
2021/12/01 04:22:14;;;;;;;8.73;8.10;;;;;;;;;;2090805;28;20188;-58
2021/12/01 04:23:14;;;;;;;7.38;6.78;;;;;;;;;;2091401;28;20182;-59
2021/12/01 04:24:14;;;;;;;8.90;8.10;;;;;;;;;;2083624;28;20172;-57
2021/12/01 04:25:15;;;;;;;7.63;7.07;;;;;;;;;;2090645;28;20175;-58
2021/12/01 04:26:19;;;;;;;8.43;7.82;;;;;;;;;;2083929;28;20188;-58
2021/12/01 04:27:19;;;;;;;9.82;9.05;;;;;;;;;;2083400;28;20299;-58
2021/12/01 04:28:20;;;;;;;9.02;8.32;;;;;;;;;;2084844;28;20221;-57
2021/12/01 04:29:20;;;;;;;8.57;7.95;;;;;;;;;;2090132;28;20241;-55
2021/12/01 04:30:22;;;;;;;9.48;8.77;;;;;;;;;;2090229;28;20214;-58
2021/12/01 04:31:23;;;;;;;9.77;9.07;;;;;;;;;;2090827;28;20167;-56
2021/12/01 04:32:24;;;;;;;8.57;7.90;;;;;;;;;;2091099;28;20203;-57
2021/12/01 04:33:24;;;;;;;9.63;8.85;;;;;;;;;;2090420;28;20180;-58
2021/12/01 04:34:24;;;;;;;7.03;6.53;;;;;;;;;;2091233;28;20172;-57
2021/12/01 04:35:27;;;;;;;8.57;7.88;;;;;;;;;;2089661;28;20265;-59
2021/12/01 04:36:36;;;;;;;9.00;8.30;;;;;;;;;;2090453;28;20597;-55
2021/12/01 04:37:37;;;;;;;8.57;7.88;;;;;;;;;;2088428;28;20186;-57
2021/12/01 04:38:37;;;;;;;9.52;8.82;;;;;;;;;;2085402;28;20556;-56
2021/12/01 04:39:37;;;;;;;9.40;8.60;;;;;;;;;;2085221;28;20317;-57
2021/12/01 04:40:38;;;;;;;11.82;9.73;;;;;;;;;;2094147;28;20289;-57
2021/12/01 04:41:41;;;;;;;9.30;8.50;;;;;;;;;;2086840;28;20639;-55
2021/12/01 04:42:42;;;;;;;11.00;10.10;;;;;;;;;;2090775;28;20179;-55
2021/12/01 04:43:42;;;;;;;9.43;8.63;;;;;;;;;;2098654;28;20169;-57
2021/12/01 04:44:42;;;;;;;10.32;9.48;;;;;;;;;;2090166;28;20210;-57
2021/12/01 04:45:45;;;;;;;11.05;10.18;;;;;;;;;;2090936;28;20207;-55
2021/12/01 04:46:46;;;;;;;10.63;9.73;;;;;;;;;;2091267;28;20168;-58
2021/12/01 04:47:49;;;;;;;10.80;9.90;;;;;;;;;;2090528;28;20175;-57
2021/12/01 04:48:49;;;;;;;10.73;9.93;;;;;;;;;;2088524;28;20179;-56
2021/12/01 04:49:50;;;;;;;10.90;10.00;;;;;;;;;;2096273;28;20274;-59
2021/12/01 04:50:50;;;;;;;9.93;9.13;;;;;;;;;;2099182;28;20201;-56
2021/12/01 04:51:56;;;;;;;8.48;7.88;;;;;;;;;;2087368;28;20211;-56
2021/12/01 04:52:58;;;;;;;10.02;9.30;;;;;;;;;;2088460;28;20233;-54
2021/12/01 04:53:59;;;;;;;11.13;10.20;;;;;;;;;;2090267;28;20172;-57
2021/12/01 04:54:59;;;;;;;11.23;10.35;;;;;;;;;;2086239;28;20260;-58
2021/12/01 04:55:59;;;;;;;10.07;9.27;;;;;;;;;;2089441;28;20214;-57
2021/12/01 04:57:01;;;;;;;8.88;8.18;;;;;;;;;;2089972;28;20258;-59
2021/12/01 04:58:02;;;;;;;9.90;9.10;;;;;;;;;;2085969;28;20547;-59
2021/12/01 04:59:03;;;;;;;10.82;9.93;;;;;;;;;;2086335;28;20179;-57
2021/12/01 05:00:04;;;;;;;11.05;10.25;;;;;;;;;;2090083;28;20179;-56
2021/12/01 05:01:04;;;;;;;9.65;8.95;;;;;;;;;;2089531;28;20172;-58
2021/12/01 05:02:05;;;;;;;9.63;8.82;;;;;;;;;;2081449;28;20184;-57
2021/12/01 05:03:05;;;;;;;10.43;9.52;;;;;;;;;;2089729;28;20693;-54
2021/12/01 05:04:05;;;;;;;9.68;8.80;;;;;;;;;;2091015;28;20182;-55
2021/12/01 05:05:06;;;;;;;10.38;9.65;;;;;;;;;;2090269;28;20183;-56
2021/12/01 05:06:06;;;;;;;10.27;9.48;;;;;;;;;;2090149;28;20202;-57
2021/12/01 05:07:07;;;;;;;10.10;9.30;;;;;;;;;;2090431;28;20211;-58
2021/12/01 05:08:07;;;;;;;9.18;8.40;;;;;;;;;;2085190;28;20198;-55
2021/12/01 05:09:08;;;;;;;10.10;9.40;;;;;;;;;;2090513;28;20171;-53
2021/12/01 05:10:08;;;;;;;10.82;9.98;;;;;;;;;;2087605;28;20239;-58
2021/12/01 05:11:09;;;;;;;10.23;9.52;;;;;;;;;;2091521;28;20203;-57
2021/12/01 05:12:09;;;;;;;10.60;9.80;;;;;;;;;;2084205;28;20176;-54
2021/12/01 05:13:10;;;;;;;9.27;8.57;;;;;;;;;;2090546;28;20178;-54
2021/12/01 05:14:11;;;;;;;11.27;10.35;;;;;;;;;;2083522;28;20271;-54
2021/12/01 05:15:11;;;;;;;10.73;9.82;;;;;;;;;;2089236;28;20670;-55
2021/12/01 05:16:12;;;;;;;10.95;10.05;;;;;;;;;;2089832;28;20190;-54
2021/12/01 05:17:12;;;;;;;9.90;9.07;;;;;;;;;;2090125;28;20171;-53
2021/12/01 05:18:13;;;;;;;10.70;9.90;;;;;;;;;;2087955;28;20209;-52
2021/12/01 05:19:13;;;;;;;9.75;8.95;;;;;;;;;;2090808;28;20175;-54
2021/12/01 05:20:13;;;;;;;9.73;8.93;;;;;;;;;;2084829;28;20176;-58
2021/12/01 05:21:14;;;;;;;9.73;8.93;;;;;;;;;;2090613;28;20288;-57
2021/12/01 05:22:14;;;;;;;10.50;9.70;;;;;;;;;;2089207;28;20281;-53
2021/12/01 05:23:15;;;;;;;10.88;10.02;;;;;;;;;;2089350;28;20180;-55
2021/12/01 05:24:16;;;;;;;11.35;10.45;;;;;;;;;;2090010;28;20270;-56
2021/12/01 05:25:16;;;;;;;11.38;10.35;;;;;;;;;;2090392;28;20172;-54
2021/12/01 05:26:17;;;;;;;10.93;10.10;;;;;;;;;;2085149;28;20184;-57
2021/12/01 05:27:17;;;;;;;10.43;9.63;;;;;;;;;;2089609;28;20211;-57
2021/12/01 05:28:18;;;;;;;11.23;10.27;;;;;;;;;;2088588;28;20640;-60
2021/12/01 05:29:20;;;;;;;9.85;8.95;;;;;;;;;;2089718;28;20258;-56
2021/12/01 05:30:21;;;;;;;9.93;9.02;;;;;;;;;;2076872;28;20212;-55
2021/12/01 05:31:21;;;;;;;9.60;8.80;;;;;;;;;;2085296;28;20175;-57
2021/12/01 05:32:21;;;;;;;11.05;10.15;;;;;;;;;;2085475;28;20161;-55
2021/12/01 05:33:22;;;;;;;9.57;8.80;;;;;;;;;;2097276;28;20263;-56
2021/12/01 05:34:23;;;;;;;10.90;10.00;;;;;;;;;;2097937;28;20277;-58
2021/12/01 05:35:23;;;;;;;10.90;9.90;;;;;;;;;;2086528;28;20176;-56
2021/12/01 05:36:24;;;;;;;10.82;9.93;;;;;;;;;;2090706;28;20233;-55
2021/12/01 05:37:24;;;;;;;11.18;10.27;;;;;;;;;;2089736;28;20175;-56
2021/12/01 05:38:25;;;;;;;11.27;10.43;;;;;;;;;;2085364;28;20265;-56
2021/12/01 05:39:26;;;;;;;9.27;8.65;;;;;;;;;;2085580;28;20264;-58
2021/12/01 05:40:27;;;;;;;10.23;9.30;;;;;;;;;;2088248;28;20179;-55
2021/12/01 05:41:27;;;;;;;10.23;9.40;;;;;;;;;;2089837;28;20233;-57
2021/12/01 05:42:27;;;;;;;10.52;9.73;;;;;;;;;;2091399;28;20199;-59
2021/12/01 05:43:28;;;;;;;10.05;9.27;;;;;;;;;;2090591;28;20183;-53
2021/12/01 05:44:30;;;;;;;10.65;9.73;;;;;;;;;;2089605;28;20176;-55
2021/12/01 05:45:30;;;;;;;11.00;10.20;;;;;;;;;;2089083;28;20233;-55
2021/12/01 05:46:31;;;;;;;10.75;9.80;;;;;;;;;;2096556;28;20167;-54
2021/12/01 05:47:31;;;;;;;10.18;9.38;;;;;;;;;;2089685;28;20240;-58
2021/12/01 05:48:31;;;;;;;10.50;9.60;;;;;;;;;;2084671;28;20258;-57
2021/12/01 05:49:32;;;;;;;10.88;10.02;;;;;;;;;;2085521;28;20189;-57
2021/12/01 05:50:32;;;;;;;9.43;8.73;;;;;;;;;;2080617;28;20196;-57
2021/12/01 05:51:33;;;;;;;9.45;8.65;;;;;;;;;;2075804;28;20180;-56
2021/12/01 05:52:33;;;;;;;9.48;8.80;;;;;;;;;;2085151;28;20590;-59
2021/12/01 05:53:34;;;;;;;11.02;10.18;;;;;;;;;;2087523;28;20730;-58
2021/12/01 05:54:34;;;;;;;9.88;9.07;;;;;;;;;;2085463;28;20180;-55
2021/12/01 05:55:35;;;;;;;9.25;8.55;;;;;;;;;;2088786;28;20200;-58
2021/12/01 05:56:35;;;;;;;8.80;8.10;;;;;;;;;;2090943;28;20221;-57
2021/12/01 05:57:36;;;;;;;8.82;8.23;;;;;;;;;;2089146;28;20175;-58
2021/12/01 05:58:36;;;;;;;8.55;7.95;;;;;;;;;;2092314;28;20178;-58
2021/12/01 05:59:37;;;;;;;9.18;8.48;;;;;;;;;;2089150;28;20186;-55
2021/12/01 06:00:38;;;;;;;10.57;9.70;;;;;;;;;;2084073;28;20303;-58
2021/12/01 06:01:38;;;;;;;10.90;10.10;;;;;;;;;;2086390;28;20179;-58
2021/12/01 06:02:38;;;;;;;9.60;8.88;;;;;;;;;;2090131;28;20187;-58
2021/12/01 06:03:39;;;;;;;9.60;8.80;;;;;;;;;;2089285;28;20187;-60
2021/12/01 06:04:40;;;;;;;10.15;9.38;;;;;;;;;;2083143;28;20717;-58
2021/12/01 06:05:41;;;;;;;9.93;9.20;;;;;;;;;;2077319;28;20200;-58
2021/12/01 06:06:42;;;;;;;9.98;9.10;;;;;;;;;;2086798;28;20550;-57
2021/12/01 06:07:42;;;;;;;10.25;9.25;;;;;;;;;;2085653;28;20187;-59
2021/12/01 06:08:43;;;;;;;11.05;10.25;;;;;;;;;;2089746;28;20678;-58